sensor_id;sensor_type;location;lat;lon;timestamp;P1;P2;P0
28026;PMS5003;15344;52.342;-1.290;2023-10-19T00:01:12;69;61;
28026;PMS5003;15344;52.342;-1.290;2023-10-19T00:03:37;67;58;
28026;PMS5003;15344;52.342;-1.290;2023-10-19T00:06:03;82;75;
28026;PMS5003;15344;52.342;-1.290;2023-10-19T00:08:28;71;64;
28026;PMS5003;15344;52.342;-1.290;2023-10-19T00:10:54;71;66;
28026;PMS5003;15344;52.342;-1.290;2023-10-19T00:13:20;85;76;
28026;PMS5003;15344;52.342;-1.290;2023-10-19T00:15:45;76;66;
28026;PMS5003;15344;52.342;-1.290;2023-10-19T00:18:10;86;77;
28026;PMS5003;15344;52.342;-1.290;2023-10-19T00:20:36;66;60;
28026;PMS5003;15344;52.342;-1.290;2023-10-19T00:23:01;72;65;
28026;PMS5003;15344;52.342;-1.290;2023-10-19T00:25:26;72;66;
28026;PMS5003;15344;52.342;-1.290;2023-10-19T00:27:52;77;70;
28026;PMS5003;15344;52.342;-1.290;2023-10-19T00:30:17;77;69;
28026;PMS5003;15344;52.342;-1.290;2023-10-19T00:32:42;69;62;
28026;PMS5003;15344;52.342;-1.290;2023-10-19T00:35:08;61;56;
28026;PMS5003;15344;52.342;-1.290;2023-10-19T00:37:33;71;62;
28026;PMS5003;15344;52.342;-1.290;2023-10-19T00:39:59;61;54;
28026;PMS5003;15344;52.342;-1.290;2023-10-19T00:42:24;62;55;
28026;PMS5003;15344;52.342;-1.290;2023-10-19T00:44:50;68;66;
28026;PMS5003;15344;52.342;-1.290;2023-10-19T00:47:15;76;70;
28026;PMS5003;15344;52.342;-1.290;2023-10-19T00:49:41;55;47;
28026;PMS5003;15344;52.342;-1.290;2023-10-19T00:52:07;55;49;
28026;PMS5003;15344;52.342;-1.290;2023-10-19T00:54:32;59;52;
28026;PMS5003;15344;52.342;-1.290;2023-10-19T00:56:57;68;60;
28026;PMS5003;15344;52.342;-1.290;2023-10-19T00:59:23;57;50;
28026;PMS5003;15344;52.342;-1.290;2023-10-19T01:01:49;51;49;
28026;PMS5003;15344;52.342;-1.290;2023-10-19T01:04:14;48;42;
28026;PMS5003;15344;52.342;-1.290;2023-10-19T01:06:39;63;57;
28026;PMS5003;15344;52.342;-1.290;2023-10-19T01:09:05;53;47;
28026;PMS5003;15344;52.342;-1.290;2023-10-19T01:11:30;59;51;
28026;PMS5003;15344;52.342;-1.290;2023-10-19T01:13:56;56;52;
28026;PMS5003;15344;52.342;-1.290;2023-10-19T01:16:21;55;48;
28026;PMS5003;15344;52.342;-1.290;2023-10-19T01:18:47;55;53;
28026;PMS5003;15344;52.342;-1.290;2023-10-19T01:21:12;53;48;
28026;PMS5003;15344;52.342;-1.290;2023-10-19T01:23:37;53;47;
28026;PMS5003;15344;52.342;-1.290;2023-10-19T01:26:03;81;73;
28026;PMS5003;15344;52.342;-1.290;2023-10-19T01:28:29;72;67;
28026;PMS5003;15344;52.342;-1.290;2023-10-19T01:30:54;60;51;
28026;PMS5003;15344;52.342;-1.290;2023-10-19T01:33:20;59;52;
28026;PMS5003;15344;52.342;-1.290;2023-10-19T01:35:45;60;53;
28026;PMS5003;15344;52.342;-1.290;2023-10-19T01:38:11;52;47;
28026;PMS5003;15344;52.342;-1.290;2023-10-19T01:40:36;69;63;
28026;PMS5003;15344;52.342;-1.290;2023-10-19T01:43:01;71;64;
28026;PMS5003;15344;52.342;-1.290;2023-10-19T01:45:26;67;64;
28026;PMS5003;15344;52.342;-1.290;2023-10-19T01:47:52;60;58;
28026;PMS5003;15344;52.342;-1.290;2023-10-19T01:50:17;52;45;
28026;PMS5003;15344;52.342;-1.290;2023-10-19T01:52:42;52;45;
28026;PMS5003;15344;52.342;-1.290;2023-10-19T01:55:08;55;50;
28026;PMS5003;15344;52.342;-1.290;2023-10-19T01:57:33;48;44;
28026;PMS5003;15344;52.342;-1.290;2023-10-19T01:59:59;50;43;
28026;PMS5003;15344;52.342;-1.290;2023-10-19T02:02:24;65;56;
28026;PMS5003;15344;52.342;-1.290;2023-10-19T02:04:50;56;46;
28026;PMS5003;15344;52.342;-1.290;2023-10-19T02:07:16;63;54;
28026;PMS5003;15344;52.342;-1.290;2023-10-19T02:09:42;67;59;
28026;PMS5003;15344;52.342;-1.290;2023-10-19T02:12:07;57;48;
28026;PMS5003;15344;52.342;-1.290;2023-10-19T02:14:33;49;44;
28026;PMS5003;15344;52.342;-1.290;2023-10-19T02:16:59;82;72;
28026;PMS5003;15344;52.342;-1.290;2023-10-19T02:19:24;106;96;
28026;PMS5003;15344;52.342;-1.290;2023-10-19T02:21:50;114;107;
28026;PMS5003;15344;52.342;-1.290;2023-10-19T02:24:15;87;82;
28026;PMS5003;15344;52.342;-1.290;2023-10-19T02:26:40;108;97;
28026;PMS5003;15344;52.342;-1.290;2023-10-19T02:29:06;103;95;
28026;PMS5003;15344;52.342;-1.290;2023-10-19T02:31:31;106;96;
28026;PMS5003;15344;52.342;-1.290;2023-10-19T02:33:57;103;93;
28026;PMS5003;15344;52.342;-1.290;2023-10-19T02:36:22;91;81;
28026;PMS5003;15344;52.342;-1.290;2023-10-19T02:38:48;86;78;
28026;PMS5003;15344;52.342;-1.290;2023-10-19T02:41:13;94;83;
28026;PMS5003;15344;52.342;-1.290;2023-10-19T02:43:39;80;70;
28026;PMS5003;15344;52.342;-1.290;2023-10-19T02:46:04;82;72;
28026;PMS5003;15344;52.342;-1.290;2023-10-19T02:48:30;86;77;
28026;PMS5003;15344;52.342;-1.290;2023-10-19T02:50:55;77;71;
28026;PMS5003;15344;52.342;-1.290;2023-10-19T02:53:22;65;58;
28026;PMS5003;15344;52.342;-1.290;2023-10-19T02:55:47;73;68;
28026;PMS5003;15344;52.342;-1.290;2023-10-19T02:58:12;80;72;
28026;PMS5003;15344;52.342;-1.290;2023-10-19T03:00:38;80;72;
28026;PMS5003;15344;52.342;-1.290;2023-10-19T03:03:04;73;65;
28026;PMS5003;15344;52.342;-1.290;2023-10-19T03:05:28;73;64;
28026;PMS5003;15344;52.342;-1.290;2023-10-19T03:07:54;77;68;
28026;PMS5003;15344;52.342;-1.290;2023-10-19T03:10:19;76;70;
28026;PMS5003;15344;52.342;-1.290;2023-10-19T03:12:45;72;60;
28026;PMS5003;15344;52.342;-1.290;2023-10-19T03:15:10;65;58;
28026;PMS5003;15344;52.342;-1.290;2023-10-19T03:17:36;71;63;
28026;PMS5003;15344;52.342;-1.290;2023-10-19T03:20:02;68;63;
28026;PMS5003;15344;52.342;-1.290;2023-10-19T03:22:27;82;73;
28026;PMS5003;15344;52.342;-1.290;2023-10-19T03:24:52;94;83;
28026;PMS5003;15344;52.342;-1.290;2023-10-19T03:27:18;87;77;
28026;PMS5003;15344;52.342;-1.290;2023-10-19T03:29:44;94;84;
28026;PMS5003;15344;52.342;-1.290;2023-10-19T03:32:09;92;84;
28026;PMS5003;15344;52.342;-1.290;2023-10-19T03:34:35;87;79;
28026;PMS5003;15344;52.342;-1.290;2023-10-19T03:37:00;76;74;
28026;PMS5003;15344;52.342;-1.290;2023-10-19T03:39:26;87;79;
28026;PMS5003;15344;52.342;-1.290;2023-10-19T03:41:51;121;110;
28026;PMS5003;15344;52.342;-1.290;2023-10-19T03:44:17;115;107;
28026;PMS5003;15344;52.342;-1.290;2023-10-19T03:46:42;106;96;
28026;PMS5003;15344;52.342;-1.290;2023-10-19T03:49:08;124;112;
28026;PMS5003;15344;52.342;-1.290;2023-10-19T03:51:32;609;607;
28026;PMS5003;15344;52.342;-1.290;2023-10-19T03:53:58;125;121;
28026;PMS5003;15344;52.342;-1.290;2023-10-19T03:56:24;622;612;
28026;PMS5003;15344;52.342;-1.290;2023-10-19T03:58:49;2566;2560;
28026;PMS5003;15344;52.342;-1.290;2023-10-19T04:01:14;3055;3048;
28026;PMS5003;15344;52.342;-1.290;2023-10-19T04:03:40;1597;1589;
28026;PMS5003;15344;52.342;-1.290;2023-10-19T04:06:05;116;113;
28026;PMS5003;15344;52.342;-1.290;2023-10-19T04:08:31;611;601;
28026;PMS5003;15344;52.342;-1.290;2023-10-19T04:10:56;107;92;
28026;PMS5003;15344;52.342;-1.290;2023-10-19T04:13:22;109;100;
28026;PMS5003;15344;52.342;-1.290;2023-10-19T04:15:47;98;88;
28026;PMS5003;15344;52.342;-1.290;2023-10-19T04:18:12;92;87;
28026;PMS5003;15344;52.342;-1.290;2023-10-19T04:20:38;107;97;
28026;PMS5003;15344;52.342;-1.290;2023-10-19T04:23:03;120;112;
28026;PMS5003;15344;52.342;-1.290;2023-10-19T04:25:29;102;93;
28026;PMS5003;15344;52.342;-1.290;2023-10-19T04:27:55;105;95;
28026;PMS5003;15344;52.342;-1.290;2023-10-19T04:30:20;124;114;
28026;PMS5003;15344;52.342;-1.290;2023-10-19T04:32:46;116;112;
28026;PMS5003;15344;52.342;-1.290;2023-10-19T04:35:11;115;104;
28026;PMS5003;15344;52.342;-1.290;2023-10-19T04:37:36;104;93;
28026;PMS5003;15344;52.342;-1.290;2023-10-19T04:40:02;98;92;
28026;PMS5003;15344;52.342;-1.290;2023-10-19T04:42:28;110;102;
28026;PMS5003;15344;52.342;-1.290;2023-10-19T04:44:54;107;95;
28026;PMS5003;15344;52.342;-1.290;2023-10-19T04:47:19;114;112;
28026;PMS5003;15344;52.342;-1.290;2023-10-19T04:49:44;122;112;
28026;PMS5003;15344;52.342;-1.290;2023-10-19T04:52:10;114;104;
28026;PMS5003;15344;52.342;-1.290;2023-10-19T04:54:35;119;110;
28026;PMS5003;15344;52.342;-1.290;2023-10-19T04:57:01;117;108;
28026;PMS5003;15344;52.342;-1.290;2023-10-19T04:59:26;108;98;
28026;PMS5003;15344;52.342;-1.290;2023-10-19T05:01:51;113;102;
28026;PMS5003;15344;52.342;-1.290;2023-10-19T05:04:17;590;590;
28026;PMS5003;15344;52.342;-1.290;2023-10-19T05:06:43;107;95;
28026;PMS5003;15344;52.342;-1.290;2023-10-19T05:09:08;108;103;
28026;PMS5003;15344;52.342;-1.290;2023-10-19T05:11:33;111;100;
28026;PMS5003;15344;52.342;-1.290;2023-10-19T05:13:59;612;602;
28026;PMS5003;15344;52.342;-1.290;2023-10-19T05:16:24;112;112;
28026;PMS5003;15344;52.342;-1.290;2023-10-19T05:18:50;119;117;
28026;PMS5003;15344;52.342;-1.290;2023-10-19T05:21:15;627;615;
28026;PMS5003;15344;52.342;-1.290;2023-10-19T05:23:41;618;608;
28026;PMS5003;15344;52.342;-1.290;2023-10-19T05:26:06;3545;3545;
28026;PMS5003;15344;52.342;-1.290;2023-10-19T05:28:31;3044;3041;
28026;PMS5003;15344;52.342;-1.290;2023-10-19T05:30:57;4029;4026;
28026;PMS5003;15344;52.342;-1.290;2023-10-19T05:33:22;4030;4027;
28026;PMS5003;15344;52.342;-1.290;2023-10-19T05:35:47;4516;4516;
28026;PMS5003;15344;52.342;-1.290;2023-10-19T05:38:13;5000;5000;
28026;PMS5003;15344;52.342;-1.290;2023-10-19T05:40:38;4515;4514;
28026;PMS5003;15344;52.342;-1.290;2023-10-19T05:43:04;3547;3543;
28026;PMS5003;15344;52.342;-1.290;2023-10-19T05:45:29;3063;3057;
28026;PMS5003;15344;52.342;-1.290;2023-10-19T05:47:55;5000;5000;
28026;PMS5003;15344;52.342;-1.290;2023-10-19T05:50:21;3059;3055;
28026;PMS5003;15344;52.342;-1.290;2023-10-19T05:52:46;4514;4514;
28026;PMS5003;15344;52.342;-1.290;2023-10-19T05:55:12;3059;3053;
28026;PMS5003;15344;52.342;-1.290;2023-10-19T05:57:37;2572;2566;
28026;PMS5003;15344;52.342;-1.290;2023-10-19T06:00:02;3060;3056;
28026;PMS5003;15344;52.342;-1.290;2023-10-19T06:02:28;4027;4025;
28026;PMS5003;15344;52.342;-1.290;2023-10-19T06:04:54;4029;4026;
28026;PMS5003;15344;52.342;-1.290;2023-10-19T06:07:19;3061;3056;
28026;PMS5003;15344;52.342;-1.290;2023-10-19T06:09:44;1114;1103;
28026;PMS5003;15344;52.342;-1.290;2023-10-19T06:12:10;3541;3538;
28026;PMS5003;15344;52.342;-1.290;2023-10-19T06:14:36;3549;3541;
28026;PMS5003;15344;52.342;-1.290;2023-10-19T06:17:01;3546;3543;
28026;PMS5003;15344;52.342;-1.290;2023-10-19T06:19:26;3545;3542;
28026;PMS5003;15344;52.342;-1.290;2023-10-19T06:21:52;3535;3531;
28026;PMS5003;15344;52.342;-1.290;2023-10-19T06:24:17;2644;2638;
28026;PMS5003;15344;52.342;-1.290;2023-10-19T06:26:43;1110;1106;
28026;PMS5003;15344;52.342;-1.290;2023-10-19T06:29:08;1107;1102;
28026;PMS5003;15344;52.342;-1.290;2023-10-19T06:31:33;628;616;
28026;PMS5003;15344;52.342;-1.290;2023-10-19T06:33:58;1604;1595;
28026;PMS5003;15344;52.342;-1.290;2023-10-19T06:36:24;3054;3052;
28026;PMS5003;15344;52.342;-1.290;2023-10-19T06:38:49;2091;2085;
28026;PMS5003;15344;52.342;-1.290;2023-10-19T06:41:15;153;148;
28026;PMS5003;15344;52.342;-1.290;2023-10-19T06:43:40;159;148;
28026;PMS5003;15344;52.342;-1.290;2023-10-19T06:46:06;138;132;
28026;PMS5003;15344;52.342;-1.290;2023-10-19T06:48:31;185;174;
28026;PMS5003;15344;52.342;-1.290;2023-10-19T06:50:56;183;170;
28026;PMS5003;15344;52.342;-1.290;2023-10-19T06:53:21;640;633;
28026;PMS5003;15344;52.342;-1.290;2023-10-19T06:55:47;145;142;
28026;PMS5003;15344;52.342;-1.290;2023-10-19T06:58:12;147;132;
28026;PMS5003;15344;52.342;-1.290;2023-10-19T07:00:38;617;607;
28026;PMS5003;15344;52.342;-1.290;2023-10-19T07:03:03;614;610;
28026;PMS5003;15344;52.342;-1.290;2023-10-19T07:05:28;126;113;
28026;PMS5003;15344;52.342;-1.290;2023-10-19T07:07:54;1101;1093;
28026;PMS5003;15344;52.342;-1.290;2023-10-19T07:10:19;633;623;
28026;PMS5003;15344;52.342;-1.290;2023-10-19T07:12:45;1598;1589;
28026;PMS5003;15344;52.342;-1.290;2023-10-19T07:15:10;126;121;
28026;PMS5003;15344;52.342;-1.290;2023-10-19T07:17:36;613;607;
28026;PMS5003;15344;52.342;-1.290;2023-10-19T07:20:01;2569;2564;
28026;PMS5003;15344;52.342;-1.290;2023-10-19T07:22:26;2574;2564;
28026;PMS5003;15344;52.342;-1.290;2023-10-19T07:24:51;3540;3538;
28026;PMS5003;15344;52.342;-1.290;2023-10-19T07:27:17;4494;4494;
28026;PMS5003;15344;52.342;-1.290;2023-10-19T07:29:42;2089;2081;
28026;PMS5003;15344;52.342;-1.290;2023-10-19T07:32:08;3055;3052;
28026;PMS5003;15344;52.342;-1.290;2023-10-19T07:34:33;3050;3044;
28026;PMS5003;15344;52.342;-1.290;2023-10-19T07:36:58;3539;3537;
28026;PMS5003;15344;52.342;-1.290;2023-10-19T07:39:23;3543;3539;
28026;PMS5003;15344;52.342;-1.290;2023-10-19T07:41:49;3546;3543;
28026;PMS5003;15344;52.342;-1.290;2023-10-19T07:44:14;3034;3031;
28026;PMS5003;15344;52.342;-1.290;2023-10-19T07:46:40;4031;4028;
28026;PMS5003;15344;52.342;-1.290;2023-10-19T07:49:05;4990;4990;
28026;PMS5003;15344;52.342;-1.290;2023-10-19T07:51:31;3055;3052;
28026;PMS5003;15344;52.342;-1.290;2023-10-19T07:53:56;4026;4025;
28026;PMS5003;15344;52.342;-1.290;2023-10-19T07:56:21;2573;2566;
28026;PMS5003;15344;52.342;-1.290;2023-10-19T07:58:47;4514;4513;
28026;PMS5003;15344;52.342;-1.290;2023-10-19T08:01:12;2564;2558;
28026;PMS5003;15344;52.342;-1.290;2023-10-19T08:03:37;3061;3056;
28026;PMS5003;15344;52.342;-1.290;2023-10-19T08:06:03;4457;4455;
28026;PMS5003;15344;52.342;-1.290;2023-10-19T08:08:28;3056;3050;
28026;PMS5003;15344;52.342;-1.290;2023-10-19T08:10:53;4515;4513;
28026;PMS5003;15344;52.342;-1.290;2023-10-19T08:13:19;4026;4024;
28026;PMS5003;15344;52.342;-1.290;2023-10-19T08:15:44;4517;4514;
28026;PMS5003;15344;52.342;-1.290;2023-10-19T08:18:10;5101;5101;
28026;PMS5003;15344;52.342;-1.290;2023-10-19T08:20:35;3060;3056;
28026;PMS5003;15344;52.342;-1.290;2023-10-19T08:23:01;4507;4506;
28026;PMS5003;15344;52.342;-1.290;2023-10-19T08:25:27;4059;4056;
28026;PMS5003;15344;52.342;-1.290;2023-10-19T08:27:52;2583;2573;
28026;PMS5003;15344;52.342;-1.290;2023-10-19T08:30:19;4625;4625;
28026;PMS5003;15344;52.342;-1.290;2023-10-19T08:32:43;4031;4029;
28026;PMS5003;15344;52.342;-1.290;2023-10-19T08:35:09;2098;2091;
28026;PMS5003;15344;52.342;-1.290;2023-10-19T08:37:34;4036;4033;
28026;PMS5003;15344;52.342;-1.290;2023-10-19T08:39:59;4020;4018;
28026;PMS5003;15344;52.342;-1.290;2023-10-19T08:42:25;4516;4516;
28026;PMS5003;15344;52.342;-1.290;2023-10-19T08:44:50;2097;2087;
28026;PMS5003;15344;52.342;-1.290;2023-10-19T08:47:16;4024;4023;
28026;PMS5003;15344;52.342;-1.290;2023-10-19T08:49:42;5000;5000;
28026;PMS5003;15344;52.342;-1.290;2023-10-19T08:52:07;5000;5000;
28026;PMS5003;15344;52.342;-1.290;2023-10-19T08:54:33;2569;2561;
28026;PMS5003;15344;52.342;-1.290;2023-10-19T08:56:58;4033;4031;
28026;PMS5003;15344;52.342;-1.290;2023-10-19T08:59:24;4990;4990;
28026;PMS5003;15344;52.342;-1.290;2023-10-19T09:01:49;4062;4057;
28026;PMS5003;15344;52.342;-1.290;2023-10-19T09:04:15;4507;4507;
28026;PMS5003;15344;52.342;-1.290;2023-10-19T09:06:40;5000;5000;
28026;PMS5003;15344;52.342;-1.290;2023-10-19T09:09:06;5000;5000;
28026;PMS5003;15344;52.342;-1.290;2023-10-19T09:11:31;5000;5000;
28026;PMS5003;15344;52.342;-1.290;2023-10-19T09:13:56;4033;4031;
28026;PMS5003;15344;52.342;-1.290;2023-10-19T09:16:22;3550;3550;
28026;PMS5003;15344;52.342;-1.290;2023-10-19T09:18:47;4015;4013;
28026;PMS5003;15344;52.342;-1.290;2023-10-19T09:21:15;4025;4024;
28026;PMS5003;15344;52.342;-1.290;2023-10-19T09:23:37;5000;5000;
28026;PMS5003;15344;52.342;-1.290;2023-10-19T09:26:03;4990;4990;
28026;PMS5003;15344;52.342;-1.290;2023-10-19T09:28:29;5009;5009;
28026;PMS5003;15344;52.342;-1.290;2023-10-19T09:30:54;5000;5000;
28026;PMS5003;15344;52.342;-1.290;2023-10-19T09:33:19;3071;3065;
28026;PMS5003;15344;52.342;-1.290;2023-10-19T09:35:45;5000;5000;
28026;PMS5003;15344;52.342;-1.290;2023-10-19T09:38:11;3557;3552;
28026;PMS5003;15344;52.342;-1.290;2023-10-19T09:40:36;5009;5009;
28026;PMS5003;15344;52.342;-1.290;2023-10-19T09:43:04;5000;5000;
28026;PMS5003;15344;52.342;-1.290;2023-10-19T09:45:27;5000;5000;
28026;PMS5003;15344;52.342;-1.290;2023-10-19T09:47:53;4513;4513;
28026;PMS5003;15344;52.342;-1.290;2023-10-19T09:50:18;4506;4504;
28026;PMS5003;15344;52.342;-1.290;2023-10-19T09:52:43;4523;4522;
28026;PMS5003;15344;52.342;-1.290;2023-10-19T09:55:10;5000;5000;
28026;PMS5003;15344;52.342;-1.290;2023-10-19T09:57:34;4990;4990;
28026;PMS5003;15344;52.342;-1.290;2023-10-19T10:00:00;5000;5000;
28026;PMS5003;15344;52.342;-1.290;2023-10-19T10:02:24;5000;5000;
28026;PMS5003;15344;52.342;-1.290;2023-10-19T10:04:49;5000;5000;
28026;PMS5003;15344;52.342;-1.290;2023-10-19T10:07:15;5000;5000;
28026;PMS5003;15344;52.342;-1.290;2023-10-19T10:09:41;4990;4990;
28026;PMS5003;15344;52.342;-1.290;2023-10-19T10:14:31;5000;5000;
28026;PMS5003;15344;52.342;-1.290;2023-10-19T10:16:59;5000;5000;
28026;PMS5003;15344;52.342;-1.290;2023-10-19T10:19:22;4063;4060;
28026;PMS5003;15344;52.342;-1.290;2023-10-19T10:24:13;4497;4497;
28026;PMS5003;15344;52.342;-1.290;2023-10-19T10:29:09;4516;4514;
28026;PMS5003;15344;52.342;-1.290;2023-10-19T10:31:30;5000;5000;
28026;PMS5003;15344;52.342;-1.290;2023-10-19T10:33:55;4970;4970;
28026;PMS5003;15344;52.342;-1.290;2023-10-19T10:36:21;5000;5000;
28026;PMS5003;15344;52.342;-1.290;2023-10-19T10:38:47;4980;4980;
28026;PMS5003;15344;52.342;-1.290;2023-10-19T10:41:12;5000;5000;
28026;PMS5003;15344;52.342;-1.290;2023-10-19T10:46:03;5000;5000;
28026;PMS5003;15344;52.342;-1.290;2023-10-19T10:48:28;4990;4990;
28026;PMS5003;15344;52.342;-1.290;2023-10-19T10:50:53;5000;5000;
28026;PMS5003;15344;52.342;-1.290;2023-10-19T10:53:19;5000;5000;
28026;PMS5003;15344;52.342;-1.290;2023-10-19T10:55:44;4980;4980;
28026;PMS5003;15344;52.342;-1.290;2023-10-19T10:58:14;5000;5000;
28026;PMS5003;15344;52.342;-1.290;2023-10-19T11:03:02;5000;5000;
28026;PMS5003;15344;52.342;-1.290;2023-10-19T11:05:27;5000;5000;
28026;PMS5003;15344;52.342;-1.290;2023-10-19T11:12:43;5000;5000;
28026;PMS5003;15344;52.342;-1.290;2023-10-19T11:15:09;5000;5000;
28026;PMS5003;15344;52.342;-1.290;2023-10-19T11:17:34;5009;5009;
28026;PMS5003;15344;52.342;-1.290;2023-10-19T11:19:59;5000;5000;
28026;PMS5003;15344;52.342;-1.290;2023-10-19T11:22:25;5000;5000;
28026;PMS5003;15344;52.342;-1.290;2023-10-19T11:24:51;4980;4980;
28026;PMS5003;15344;52.342;-1.290;2023-10-19T11:32:07;4990;4990;
28026;PMS5003;15344;52.342;-1.290;2023-10-19T11:34:32;5000;5000;
28026;PMS5003;15344;52.342;-1.290;2023-10-19T11:36:58;5000;5000;
28026;PMS5003;15344;52.342;-1.290;2023-10-19T11:39:23;5050;5050;
28026;PMS5003;15344;52.342;-1.290;2023-10-19T11:41:49;4990;4990;
28026;PMS5003;15344;52.342;-1.290;2023-10-19T11:44:14;4980;4980;
28026;PMS5003;15344;52.342;-1.290;2023-10-19T11:46:40;5000;5000;
28026;PMS5003;15344;52.342;-1.290;2023-10-19T11:49:06;5000;5000;
28026;PMS5003;15344;52.342;-1.290;2023-10-19T11:51:31;5000;5000;
28026;PMS5003;15344;52.342;-1.290;2023-10-19T11:53:56;5000;5000;
28026;PMS5003;15344;52.342;-1.290;2023-10-19T11:56:22;5000;5000;
28026;PMS5003;15344;52.342;-1.290;2023-10-19T11:58:47;5030;5030;
28026;PMS5003;15344;52.342;-1.290;2023-10-19T12:01:13;4990;4990;
28026;PMS5003;15344;52.342;-1.290;2023-10-19T12:03:39;5000;5000;
28026;PMS5003;15344;52.342;-1.290;2023-10-19T12:06:04;5000;5000;
28026;PMS5003;15344;52.342;-1.290;2023-10-19T12:08:30;5000;5000;
28026;PMS5003;15344;52.342;-1.290;2023-10-19T12:10:55;4990;4990;
28026;PMS5003;15344;52.342;-1.290;2023-10-19T12:13:21;5000;5000;
28026;PMS5003;15344;52.342;-1.290;2023-10-19T12:15:46;5000;5000;
28026;PMS5003;15344;52.342;-1.290;2023-10-19T12:18:12;5000;5000;
28026;PMS5003;15344;52.342;-1.290;2023-10-19T12:20:37;5000;5000;
28026;PMS5003;15344;52.342;-1.290;2023-10-19T12:23:02;5000;5000;
28026;PMS5003;15344;52.342;-1.290;2023-10-19T12:25:28;5000;5000;
28026;PMS5003;15344;52.342;-1.290;2023-10-19T12:27:53;5000;5000;
28026;PMS5003;15344;52.342;-1.290;2023-10-19T12:30:18;5000;5000;
28026;PMS5003;15344;52.342;-1.290;2023-10-19T12:32:44;5000;5000;
28026;PMS5003;15344;52.342;-1.290;2023-10-19T12:35:09;4970;4970;
28026;PMS5003;15344;52.342;-1.290;2023-10-19T12:37:34;5000;5000;
28026;PMS5003;15344;52.342;-1.290;2023-10-19T12:40:00;4990;4990;
28026;PMS5003;15344;52.342;-1.290;2023-10-19T12:42:27;5000;5000;
28026;PMS5003;15344;52.342;-1.290;2023-10-19T12:44:51;5000;5000;
28026;PMS5003;15344;52.342;-1.290;2023-10-19T12:47:16;5000;5000;
28026;PMS5003;15344;52.342;-1.290;2023-10-19T12:49:42;5000;5000;
28026;PMS5003;15344;52.342;-1.290;2023-10-19T12:52:07;5000;5000;
28026;PMS5003;15344;52.342;-1.290;2023-10-19T12:54:33;5000;5000;
28026;PMS5003;15344;52.342;-1.290;2023-10-19T12:56:58;5020;5020;
28026;PMS5003;15344;52.342;-1.290;2023-10-19T12:59:23;5009;5009;
28026;PMS5003;15344;52.342;-1.290;2023-10-19T13:01:48;5000;5000;
28026;PMS5003;15344;52.342;-1.290;2023-10-19T13:04:14;4970;4970;
28026;PMS5003;15344;52.342;-1.290;2023-10-19T13:06:39;5000;5000;
28026;PMS5003;15344;52.342;-1.290;2023-10-19T13:09:04;5000;5000;
28026;PMS5003;15344;52.342;-1.290;2023-10-19T13:11:29;5000;5000;
28026;PMS5003;15344;52.342;-1.290;2023-10-19T13:13:54;4980;4980;
28026;PMS5003;15344;52.342;-1.290;2023-10-19T13:16:19;5000;5000;
28026;PMS5003;15344;52.342;-1.290;2023-10-19T13:18:45;5000;5000;
28026;PMS5003;15344;52.342;-1.290;2023-10-19T13:21:10;5000;5000;
28026;PMS5003;15344;52.342;-1.290;2023-10-19T13:23:35;5000;5000;
28026;PMS5003;15344;52.342;-1.290;2023-10-19T13:26:00;5000;5000;
28026;PMS5003;15344;52.342;-1.290;2023-10-19T13:28:27;5000;5000;
28026;PMS5003;15344;52.342;-1.290;2023-10-19T13:30:52;5000;5000;
28026;PMS5003;15344;52.342;-1.290;2023-10-19T13:33:17;5000;5000;
28026;PMS5003;15344;52.342;-1.290;2023-10-19T13:35:42;5000;5000;
28026;PMS5003;15344;52.342;-1.290;2023-10-19T13:38:08;5000;5000;
28026;PMS5003;15344;52.342;-1.290;2023-10-19T13:40:33;5000;5000;
28026;PMS5003;15344;52.342;-1.290;2023-10-19T13:42:58;5000;5000;
28026;PMS5003;15344;52.342;-1.290;2023-10-19T13:45:24;4980;4980;
28026;PMS5003;15344;52.342;-1.290;2023-10-19T13:47:50;5000;5000;
28026;PMS5003;15344;52.342;-1.290;2023-10-19T13:50:15;5000;5000;
28026;PMS5003;15344;52.342;-1.290;2023-10-19T13:52:40;5000;5000;
28026;PMS5003;15344;52.342;-1.290;2023-10-19T13:55:06;5009;5009;
28026;PMS5003;15344;52.342;-1.290;2023-10-19T13:57:31;5009;5009;
28026;PMS5003;15344;52.342;-1.290;2023-10-19T13:59:57;5000;5000;
28026;PMS5003;15344;52.342;-1.290;2023-10-19T14:02:22;5000;5000;
28026;PMS5003;15344;52.342;-1.290;2023-10-19T14:04:48;5000;5000;
28026;PMS5003;15344;52.342;-1.290;2023-10-19T14:07:13;5000;5000;
28026;PMS5003;15344;52.342;-1.290;2023-10-19T14:09:38;5000;5000;
28026;PMS5003;15344;52.342;-1.290;2023-10-19T14:12:04;5000;5000;
28026;PMS5003;15344;52.342;-1.290;2023-10-19T14:14:29;5000;5000;
28026;PMS5003;15344;52.342;-1.290;2023-10-19T14:16:54;5122;5122;
28026;PMS5003;15344;52.342;-1.290;2023-10-19T14:19:20;5000;5000;
28026;PMS5003;15344;52.342;-1.290;2023-10-19T14:21:45;5000;5000;
28026;PMS5003;15344;52.342;-1.290;2023-10-19T14:24:11;5000;5000;
28026;PMS5003;15344;52.342;-1.290;2023-10-19T14:26:36;5000;5000;
28026;PMS5003;15344;52.342;-1.290;2023-10-19T14:29:02;5070;5070;
28026;PMS5003;15344;52.342;-1.290;2023-10-19T14:31:27;5000;5000;
28026;PMS5003;15344;52.342;-1.290;2023-10-19T14:33:52;5000;5000;
28026;PMS5003;15344;52.342;-1.290;2023-10-19T14:36:18;4980;4980;
28026;PMS5003;15344;52.342;-1.290;2023-10-19T14:38:43;5000;5000;
28026;PMS5003;15344;52.342;-1.290;2023-10-19T14:41:09;5000;5000;
28026;PMS5003;15344;52.342;-1.290;2023-10-19T14:43:34;5009;5009;
28026;PMS5003;15344;52.342;-1.290;2023-10-19T14:46:00;5000;5000;
28026;PMS5003;15344;52.342;-1.290;2023-10-19T14:48:26;5000;5000;
28026;PMS5003;15344;52.342;-1.290;2023-10-19T14:50:51;5000;5000;
28026;PMS5003;15344;52.342;-1.290;2023-10-19T14:53:17;5000;5000;
28026;PMS5003;15344;52.342;-1.290;2023-10-19T14:55:43;5000;5000;
28026;PMS5003;15344;52.342;-1.290;2023-10-19T14:58:07;5000;5000;
28026;PMS5003;15344;52.342;-1.290;2023-10-19T15:00:33;5000;5000;
28026;PMS5003;15344;52.342;-1.290;2023-10-19T15:02:59;5000;5000;
28026;PMS5003;15344;52.342;-1.290;2023-10-19T15:05:24;5009;5009;
28026;PMS5003;15344;52.342;-1.290;2023-10-19T15:07:50;5000;5000;
28026;PMS5003;15344;52.342;-1.290;2023-10-19T15:10:15;4990;4990;
28026;PMS5003;15344;52.342;-1.290;2023-10-19T15:12:40;5000;5000;
28026;PMS5003;15344;52.342;-1.290;2023-10-19T15:15:06;5000;5000;
28026;PMS5003;15344;52.342;-1.290;2023-10-19T15:17:31;5000;5000;
28026;PMS5003;15344;52.342;-1.290;2023-10-19T15:19:57;5000;5000;
28026;PMS5003;15344;52.342;-1.290;2023-10-19T15:22:22;5000;5000;
28026;PMS5003;15344;52.342;-1.290;2023-10-19T15:24:50;5000;5000;
28026;PMS5003;15344;52.342;-1.290;2023-10-19T15:27:13;5000;5000;
28026;PMS5003;15344;52.342;-1.290;2023-10-19T15:29:39;5000;5000;